Time;durP1;ratioP1;P1;durP2;ratioP2;P2;SDS_P1;SDS_P2;PMS_P1;PMS_P2;Temp;Humidity;BMP_temperature;BMP_pressure;BME280_temperature;BME280_humidity;BME280_pressure;Samples;Min_cycle;Max_cycle;Signal;HPM_P1;HPM_P2
2023/11/14 00:01:37;;;;;;;10.73;3.23;;;;;;;16.52;57.87;98015.09;6733820;29;20253;-87
2023/11/14 00:04:59;;;;;;;7.53;2.93;;;;;;;16.65;57.18;98011.94;6738165;29;20299;-87
2023/11/14 00:08:22;;;;;;;5.23;2.60;;;;;;;16.70;56.67;98033.72;6719617;29;20669;-87
2023/11/14 00:11:43;;;;;;;7.63;3.17;;;;;;;16.49;56.36;98040.13;6731574;29;20684;-87
2023/11/14 00:15:06;;;;;;;6.27;2.70;;;;;;;16.28;57.01;98038.28;6732686;29;20216;-87
2023/11/14 00:18:28;;;;;;;9.30;3.47;;;;;;;16.30;56.75;98035.31;6733278;29;20297;-87
2023/11/14 00:21:50;;;;;;;9.00;3.13;;;;;;;15.79;55.27;97922.59;6708010;29;20220;-87
2023/11/14 00:25:13;;;;;;;8.97;3.03;;;;;;;16.45;54.95;98043.66;6707425;29;20212;-87
2023/11/14 00:28:34;;;;;;;11.30;4.63;;;;;;;16.22;53.88;98012.13;6707523;29;20388;-87
2023/11/14 00:31:56;;;;;;;8.47;2.90;;;;;;;16.13;53.62;98015.59;6707161;29;20697;-87
2023/11/14 00:35:17;;;;;;;11.37;2.93;;;;;;;16.35;53.61;98054.41;6712515;29;20217;-86
2023/11/14 00:38:39;;;;;;;10.97;3.07;;;;;;;16.55;52.45;98066.31;6732458;29;20601;-86
2023/11/14 00:42:03;;;;;;;7.37;2.70;;;;;;;15.89;52.24;97949.88;6732536;29;20309;-87
2023/11/14 00:45:27;;;;;;;9.80;2.83;;;;;;;16.40;52.27;98055.28;6732482;29;20214;-87
2023/11/14 00:48:48;;;;;;;8.77;3.53;;;;;;;16.84;50.76;98048.53;6732546;29;20612;-87
2023/11/14 00:52:10;;;;;;;11.30;2.77;;;;;;;16.80;50.54;98077.38;6720166;29;20225;-87
2023/11/14 00:55:33;;;;;;;11.47;3.67;;;;;;;16.88;50.70;98043.38;6706275;29;20246;-87
2023/11/14 00:58:56;;;;;;;8.03;2.60;;;;;;;16.84;51.09;98074.94;6707013;29;20609;-86
2023/11/14 01:02:18;;;;;;;11.67;2.83;;;;;;;16.64;51.79;98081.06;6706662;29;20652;-87
2023/11/14 01:05:39;;;;;;;7.17;2.60;;;;;;;16.53;52.12;98079.38;6706341;29;20586;-87
2023/11/14 01:09:01;;;;;;;8.17;2.70;;;;;;;16.82;51.21;98069.75;6706485;29;20603;-87
2023/11/14 01:12:23;;;;;;;9.40;2.90;;;;;;;16.70;51.57;98082.72;6705987;29;20252;-87
2023/11/14 01:15:46;;;;;;;9.10;2.80;;;;;;;16.55;51.36;98079.91;6705925;29;20215;-87
2023/11/14 01:19:08;;;;;;;8.33;3.17;;;;;;;16.80;51.36;98085.53;6706019;29;20241;-87
2023/11/14 01:22:30;;;;;;;12.90;3.30;;;;;;;16.80;51.26;98082.00;6705555;29;20241;-86
2023/11/14 01:25:51;;;;;;;7.77;2.57;;;;;;;17.12;50.42;98096.38;6715933;29;20222;-87
2023/11/14 01:29:13;;;;;;;10.77;3.47;;;;;;;16.92;51.32;98097.06;6731268;29;20225;-87
2023/11/14 01:32:36;;;;;;;6.33;2.87;;;;;;;16.69;51.81;98111.03;6750215;29;20216;-87
2023/11/14 01:35:58;;;;;;;6.33;2.60;;;;;;;16.57;51.84;98113.13;6756719;29;20239;-87
2023/11/14 01:39:19;;;;;;;8.70;3.10;;;;;;;16.64;51.82;98124.59;6757309;29;20848;-86
2023/11/14 01:42:41;;;;;;;10.80;2.83;;;;;;;16.59;52.18;98124.59;6755336;29;20338;-87
2023/11/14 01:46:02;;;;;;;7.20;2.60;;;;;;;16.79;51.30;98124.72;6756502;29;20209;-87
2023/11/14 01:49:25;;;;;;;8.60;3.07;;;;;;;16.72;51.39;98117.88;6757043;29;20369;-87
2023/11/14 01:52:47;;;;;;;8.23;2.70;;;;;;;16.38;52.22;98130.91;6756899;29;20216;-87
2023/11/14 01:56:10;;;;;;;6.33;3.10;;;;;;;16.68;51.92;98130.38;6734944;29;20365;-86
2023/11/14 01:59:31;;;;;;;8.63;2.90;;;;;;;16.47;52.20;98123.09;6721532;29;20310;-87
2023/11/14 02:02:53;;;;;;;8.80;2.70;;;;;;;16.77;51.86;98145.13;6719132;29;20316;-88
2023/11/14 02:06:16;;;;;;;9.00;3.03;;;;;;;16.20;52.38;98149.47;6730279;29;20393;-88
2023/11/14 02:09:38;;;;;;;10.20;3.20;;;;;;;15.95;52.49;98064.91;6730917;29;20296;-87
2023/11/14 02:13:00;;;;;;;6.13;2.60;;;;;;;16.25;52.62;98108.72;6730815;29;20225;-87
2023/11/14 02:16:23;;;;;;;9.17;2.63;;;;;;;16.27;52.13;98082.09;6719095;29;20563;-87
2023/11/14 02:19:44;;;;;;;7.03;2.77;;;;;;;16.52;52.14;98134.03;6708779;29;20768;-87
2023/11/14 02:23:11;;;;;;;7.23;2.77;;;;;;;16.01;53.58;98135.41;6729968;29;20251;-87
2023/11/14 02:26:34;;;;;;;6.83;2.60;;;;;;;16.46;52.48;98110.59;6730281;29;20308;-87
2023/11/14 02:29:55;;;;;;;6.40;2.80;;;;;;;15.38;53.09;97991.22;6729999;29;20307;-87
2023/11/14 02:33:17;;;;;;;9.70;2.90;;;;;;;15.57;53.20;98052.28;6728323;29;20220;-87
2023/11/14 02:36:39;;;;;;;6.50;2.97;;;;;;;16.00;53.98;98141.94;6730212;29;20351;-87
2023/11/14 02:40:03;;;;;;;11.90;3.07;;;;;;;16.02;53.91;98149.81;6730143;29;20242;-87
2023/11/14 02:43:26;;;;;;;6.43;2.73;;;;;;;16.32;53.33;98141.97;6730175;29;20736;-87
2023/11/14 02:46:47;;;;;;;8.97;2.80;;;;;;;16.64;52.22;98135.50;6729876;29;20323;-87
2023/11/14 02:50:29;;;;;;;9.53;2.83;;;;;;;16.35;52.67;98112.34;6712212;29;20320;-86
2023/11/14 02:53:52;;;;;;;9.77;3.30;;;;;;;16.79;51.62;98122.00;6703777;29;20206;-87
2023/11/14 02:57:13;;;;;;;9.67;2.97;;;;;;;16.48;52.15;98109.25;6704385;29;20214;-87
2023/11/14 03:00:36;;;;;;;10.83;3.10;;;;;;;16.26;52.50;98089.44;6704471;29;20323;-87
2023/11/14 03:03:58;;;;;;;9.47;2.97;;;;;;;16.05;53.64;98103.91;6704092;29;20305;-87
2023/11/14 03:07:19;;;;;;;7.37;2.67;;;;;;;16.25;53.18;98098.66;6729639;29;20241;-87
2023/11/14 03:10:42;;;;;;;7.97;3.00;;;;;;;16.20;52.10;98035.22;6729732;29;20321;-87
2023/11/14 03:14:04;;;;;;;8.80;3.50;;;;;;;16.36;53.08;98127.63;6729422;29;20660;-87
2023/11/14 03:17:28;;;;;;;11.90;3.07;;;;;;;16.16;53.61;98127.41;6730092;29;20216;-86
2023/11/14 03:20:49;;;;;;;8.80;2.90;;;;;;;15.82;54.70;98142.25;6724797;29;20277;-87
2023/11/14 03:24:11;;;;;;;11.07;3.63;;;;;;;16.50;52.92;98149.78;6718443;29;20806;-87
2023/11/14 03:27:33;;;;;;;9.37;3.20;;;;;;;16.33;53.63;98159.97;6736417;29;20224;-87
2023/11/14 03:30:54;;;;;;;11.00;3.13;;;;;;;16.37;53.55;98161.91;6729952;29;20373;-86
2023/11/14 03:34:17;;;;;;;6.87;2.57;;;;;;;16.14;54.34;98175.81;6730110;29;20236;-86
2023/11/14 03:37:39;;;;;;;7.37;2.50;;;;;;;15.48;54.50;98055.72;6729016;29;20209;-86
2023/11/14 03:41:00;;;;;;;12.37;3.33;;;;;;;16.73;52.59;98149.44;6704744;29;20658;-86
2023/11/14 03:44:22;;;;;;;12.77;3.17;;;;;;;16.52;52.95;98174.88;6704433;29;20293;-86
2023/11/14 03:47:44;;;;;;;10.77;3.40;;;;;;;16.59;52.36;98173.56;6709177;29;20233;-86
2023/11/14 03:51:09;;;;;;;7.73;3.03;;;;;;;15.65;53.79;98102.66;6709070;29;20327;-87
2023/11/14 03:54:31;;;;;;;8.53;3.07;;;;;;;15.91;53.72;98138.00;6708910;29;20621;-86
2023/11/14 03:57:52;;;;;;;10.57;3.17;;;;;;;16.37;53.76;98210.03;6708435;29;20264;-87
2023/11/14 04:01:14;;;;;;;6.53;3.20;;;;;;;16.53;53.14;98214.59;6708559;29;20362;-87
2023/11/14 04:04:35;;;;;;;12.60;3.30;;;;;;;16.56;53.21;98223.06;6708151;29;20355;-87
2023/11/14 04:07:58;;;;;;;6.73;2.87;;;;;;;16.34;54.21;98208.66;6708602;29;20234;-86
2023/11/14 04:11:19;;;;;;;14.07;3.50;;;;;;;16.10;55.26;98209.22;6713236;29;20312;-86
2023/11/14 04:14:41;;;;;;;8.30;3.10;;;;;;;15.81;55.55;98203.13;6733659;29;20217;-86
2023/11/14 04:18:03;;;;;;;9.57;3.20;;;;;;;15.74;56.78;98209.84;6734173;29;20675;-87
2023/11/14 04:21:24;;;;;;;5.93;2.80;;;;;;;15.89;56.28;98191.84;6733827;29;20768;-86
2023/11/14 04:24:47;;;;;;;10.00;2.80;;;;;;;15.65;56.82;98204.03;6733688;29;20295;-86
2023/11/14 04:28:09;;;;;;;6.93;2.60;;;;;;;15.62;56.79;98201.81;6732096;29;20456;-87
2023/11/14 04:31:31;;;;;;;6.53;2.70;;;;;;;15.98;55.51;98193.00;6733168;29;20220;-90
2023/11/14 04:34:52;;;;;;;11.17;3.53;;;;;;;15.61;56.36;98212.91;6727186;29;20531;-86
2023/11/14 04:38:13;;;;;;;9.03;2.93;;;;;;;16.05;55.14;98193.63;6733436;29;20345;-86
2023/11/14 04:41:37;;;;;;;7.50;2.40;;;;;;;16.12;54.34;98201.59;6733448;29;20367;-87
2023/11/14 04:44:58;;;;;;;7.57;2.67;;;;;;;15.86;53.48;98142.59;6730668;29;20208;-85
2023/11/14 04:48:20;;;;;;;9.53;3.30;;;;;;;16.17;54.12;98216.06;6733255;29;20232;-85
2023/11/14 04:51:42;;;;;;;9.70;3.10;;;;;;;15.66;55.50;98223.84;6733460;29;20220;-86
2023/11/14 04:55:04;;;;;;;9.90;2.87;;;;;;;14.64;56.62;98097.69;6732240;29;20216;-86
2023/11/14 04:58:27;;;;;;;6.30;3.07;;;;;;;15.93;55.54;98222.06;6731885;29;20222;-86
2023/11/14 05:01:49;;;;;;;9.27;3.03;;;;;;;16.25;54.68;98220.25;6732477;29;20356;-86
2023/11/14 05:05:10;;;;;;;7.73;2.67;;;;;;;15.60;54.69;98136.03;6732677;29;20268;-86
2023/11/14 05:08:32;;;;;;;8.57;2.87;;;;;;;15.71;56.15;98234.81;6732170;29;20228;-85
2023/11/14 05:11:54;;;;;;;11.67;4.10;;;;;;;16.09;54.93;98235.56;6729504;29;20249;-86
2023/11/14 05:15:17;;;;;;;8.40;4.37;;;;;;;15.87;55.91;98258.41;6706719;29;20209;-86
2023/11/14 05:18:39;;;;;;;10.80;3.50;;;;;;;15.87;55.74;98226.59;6706852;29;20241;-87
2023/11/14 05:22:00;;;;;;;9.07;4.00;;;;;;;15.94;55.31;98238.13;6707234;29;20224;-86
2023/11/14 05:25:22;;;;;;;7.00;3.83;;;;;;;16.05;55.04;98248.03;6707567;29;20222;-84
2023/11/14 05:28:43;;;;;;;21.40;12.30;;;;;;;15.77;55.82;98240.06;6711746;29;20739;-85
2023/11/14 05:32:07;;;;;;;6.03;3.60;;;;;;;15.93;54.91;98241.88;6732085;29;20235;-86
2023/11/14 05:35:29;;;;;;;11.70;3.47;;;;;;;15.30;56.43;98221.69;6732848;29;20304;-85
2023/11/14 05:38:50;;;;;;;8.90;3.70;;;;;;;15.03;57.08;98175.38;6731982;29;20248;-84
2023/11/14 05:42:12;;;;;;;6.70;3.37;;;;;;;15.53;56.97;98256.84;6731935;29;20596;-86
2023/11/14 05:45:34;;;;;;;6.87;3.90;;;;;;;15.33;56.95;98267.41;6732686;29;20306;-86
2023/11/14 05:48:57;;;;;;;9.53;3.97;;;;;;;15.02;57.89;98271.47;6731819;29;20315;-86
2023/11/14 05:52:19;;;;;;;7.27;3.20;;;;;;;15.06;57.90;98272.66;6731251;29;20304;-88
2023/11/14 05:55:40;;;;;;;7.50;3.20;;;;;;;15.00;58.03;98267.38;6730177;29;20295;-86
2023/11/14 05:59:02;;;;;;;9.43;3.27;;;;;;;14.75;58.46;98266.94;6708505;29;20252;-86
2023/11/14 06:02:23;;;;;;;10.67;3.60;;;;;;;14.74;58.09;98249.81;6705361;29;20300;-86
2023/11/14 06:05:46;;;;;;;7.93;3.47;;;;;;;14.89;56.71;98195.81;6712586;29;20241;-86
2023/11/14 06:09:09;;;;;;;8.43;3.30;;;;;;;14.97;55.89;98198.09;6730673;29;20240;-83
2023/11/14 06:12:31;;;;;;;10.20;3.50;;;;;;;14.81;55.51;98166.34;6730893;29;20206;-86
2023/11/14 06:15:53;;;;;;;9.07;3.20;;;;;;;15.19;54.64;98200.88;6731005;29;20349;-85
2023/11/14 06:19:15;;;;;;;11.67;3.63;;;;;;;15.67;54.20;98258.94;6733451;29;20229;-86
2023/11/14 06:22:39;;;;;;;9.10;3.20;;;;;;;15.73;53.61;98263.38;6732847;29;20248;-84
2023/11/14 06:26:01;;;;;;;6.17;2.97;;;;;;;15.17;52.89;98121.56;6733363;29;20215;-85
2023/11/14 06:29:22;;;;;;;12.37;3.67;;;;;;;15.21;52.82;98145.25;6732144;29;20237;-86
2023/11/14 06:32:44;;;;;;;8.23;3.60;;;;;;;16.00;52.60;98258.84;6730894;29;20347;-84
2023/11/14 06:36:06;;;;;;;7.77;2.70;;;;;;;15.55;53.17;98263.66;6730764;29;20578;-87
2023/11/14 06:39:29;;;;;;;9.93;3.43;;;;;;;15.81;53.21;98259.41;6730579;29;20268;-86
2023/11/14 06:42:51;;;;;;;4.47;3.03;;;;;;;15.46;53.54;98275.22;6730975;29;20195;-85
2023/11/14 06:46:13;;;;;;;5.30;2.63;;;;;;;15.20;53.73;98276.66;6721846;29;20289;-85
2023/11/14 06:49:34;;;;;;;6.60;2.80;;;;;;;15.86;52.66;98273.06;6704925;29;20240;-88
2023/11/14 06:52:56;;;;;;;8.27;2.97;;;;;;;15.39;53.36;98301.72;6705680;29;20255;-85
2023/11/14 06:56:20;;;;;;;10.17;3.00;;;;;;;15.56;52.53;98240.84;6705367;29;20730;-86
2023/11/14 06:59:41;;;;;;;7.73;3.07;;;;;;;15.90;52.02;98285.06;6705031;29;20260;-85
2023/11/14 07:03:03;;;;;;;8.17;2.83;;;;;;;16.11;52.06;98281.56;6709355;29;20242;-87
2023/11/14 07:06:24;;;;;;;6.80;2.83;;;;;;;15.74;53.49;98313.94;6708484;29;20238;-85
2023/11/14 07:09:46;;;;;;;7.77;3.00;;;;;;;15.59;54.32;98315.63;6739039;29;20243;-85
2023/11/14 07:13:09;;;;;;;4.97;2.80;;;;;;;15.33;55.18;98311.66;6746475;29;20311;-86
2023/11/14 07:16:31;;;;;;;8.30;3.20;;;;;;;14.91;56.33;98318.53;6736576;29;20260;-86
2023/11/14 07:19:54;;;;;;;10.33;4.10;;;;;;;15.43;55.46;98328.13;6737435;29;20240;-86
2023/11/14 07:23:15;;;;;;;6.53;3.83;;;;;;;15.44;54.38;98294.47;6751922;29;20304;-87
2023/11/14 07:26:37;;;;;;;7.17;2.87;;;;;;;15.43;54.69;98319.16;6718984;29;20274;-85
2023/11/14 07:30:00;;;;;;;7.33;3.50;;;;;;;15.48;55.19;98349.13;6730172;29;20376;-86
2023/11/14 07:33:23;;;;;;;7.77;3.17;;;;;;;15.04;57.22;98348.06;6745757;29;20739;-86
2023/11/14 07:36:44;;;;;;;7.43;3.50;;;;;;;15.43;56.50;98335.44;6745294;29;20212;-86
2023/11/14 07:40:08;;;;;;;3.97;2.93;;;;;;;15.60;56.08;98315.38;6740032;29;20233;-85
2023/11/14 07:43:30;;;;;;;9.57;3.13;;;;;;;15.94;55.60;98324.28;6732618;29;20213;-87
2023/11/14 07:46:53;;;;;;;4.47;2.33;;;;;;;15.74;55.92;98302.25;6742064;29;20295;-86
2023/11/14 07:50:16;;;;;;;6.77;2.87;;;;;;;15.71;56.35;98321.78;6738187;29;20276;-85
2023/11/14 07:53:38;;;;;;;4.87;2.23;;;;;;;16.08;55.46;98339.16;6742546;29;20209;-88
2023/11/14 07:57:02;;;;;;;4.17;2.33;;;;;;;15.62;55.50;98306.97;6737619;29;20698;-87
2023/11/14 08:00:24;;;;;;;5.03;3.70;;;;;;;16.07;55.35;98370.16;6745846;29;20231;-86
2023/11/14 08:03:48;;;;;;;4.07;2.80;;;;;;;16.04;54.67;98366.03;6734752;29;20664;-86
2023/11/14 08:07:10;;;;;;;4.93;3.13;;;;;;;15.87;55.16;98357.06;6739537;29;20240;-86
2023/11/14 08:10:32;;;;;;;3.93;3.13;;;;;;;15.48;55.68;98340.97;6738246;29;20279;-87
2023/11/14 08:13:53;;;;;;;4.47;2.17;;;;;;;15.71;54.98;98332.66;6733495;29;20218;-87
2023/11/14 08:17:17;;;;;;;3.57;2.40;;;;;;;15.82;54.51;98331.72;6731564;29;20353;-85
2023/11/14 08:20:40;;;;;;;4.07;2.10;;;;;;;16.31;54.05;98371.56;6732694;29;20304;-83
2023/11/14 08:24:02;;;;;;;5.00;2.00;;;;;;;16.15;53.40;98392.31;6720560;29;20233;-86
2023/11/14 08:27:23;;;;;;;3.63;1.83;;;;;;;16.23;53.58;98389.13;6734459;29;20305;-86
2023/11/14 08:30:45;;;;;;;2.23;1.80;;;;;;;16.25;53.00;98406.06;6733099;29;20838;-87
2023/11/14 08:34:08;;;;;;;4.37;2.07;;;;;;;16.16;53.39;98402.09;6734918;29;20253;-87
2023/11/14 08:37:30;;;;;;;2.43;1.67;;;;;;;16.23;53.67;98412.81;6737364;29;20218;-87
2023/11/14 08:40:52;;;;;;;4.97;1.93;;;;;;;16.11;53.77;98393.06;6706816;29;20245;-82
2023/11/14 08:44:14;;;;;;;5.00;1.90;;;;;;;16.11;53.56;98342.19;6721747;29;20224;-87
2023/11/14 08:47:35;;;;;;;2.80;2.20;;;;;;;15.94;54.51;98373.22;6733827;29;20300;-87
2023/11/14 08:50:57;;;;;;;2.23;1.90;;;;;;;15.64;55.16;98332.00;6732162;29;20233;-87
2023/11/14 08:54:20;;;;;;;4.47;2.03;;;;;;;15.25;54.63;98229.75;6706143;29;20298;-87
2023/11/14 08:57:41;;;;;;;3.87;1.70;;;;;;;15.66;55.28;98352.41;6706814;29;20669;-86
2023/11/14 09:01:04;;;;;;;1.50;1.40;;;;;;;15.67;55.06;98340.47;6709365;29;20224;-87
2023/11/14 09:04:25;;;;;;;2.23;1.33;;;;;;;16.04;53.80;98336.13;6728860;29;20225;-87
2023/11/14 09:07:47;;;;;;;2.30;1.67;;;;;;;15.78;54.09;98352.31;6731996;29;20581;-87
2023/11/14 09:11:11;;;;;;;4.17;1.50;;;;;;;16.06;53.76;98361.19;6732468;29;20244;-86
2023/11/14 09:14:32;;;;;;;5.03;2.40;;;;;;;16.03;53.06;98378.00;6731010;29;20206;-87
2023/11/14 09:17:54;;;;;;;3.20;1.80;;;;;;;15.64;52.88;98362.69;6732302;29;20347;-86
2023/11/14 09:21:15;;;;;;;2.67;1.67;;;;;;;15.97;51.60;98342.81;6720436;29;20288;-87
2023/11/14 09:24:38;;;;;;;2.87;1.80;;;;;;;15.67;52.54;98347.78;6740688;29;20293;-86
2023/11/14 09:28:01;;;;;;;3.20;1.80;;;;;;;15.81;52.07;98343.69;6733130;29;20217;-86
2023/11/14 09:31:22;;;;;;;2.80;1.70;;;;;;;15.78;50.85;98319.69;6732613;29;20220;-86
2023/11/14 09:34:45;;;;;;;2.67;1.60;;;;;;;16.08;50.52;98306.53;6732344;29;20245;-86
2023/11/14 09:38:09;;;;;;;2.77;1.80;;;;;;;15.82;51.29;98357.00;6731456;29;20205;-88
2023/11/14 09:41:32;;;;;;;4.67;1.70;;;;;;;16.72;49.00;98349.25;6738748;29;20784;-87
2023/11/14 09:44:55;;;;;;;1.77;1.60;;;;;;;16.48;48.70;98328.84;6742736;29;20212;-85
2023/11/14 09:48:18;;;;;;;2.57;1.60;;;;;;;16.78;48.41;98370.00;6731444;29;20298;-87
2023/11/14 09:51:39;;;;;;;2.37;1.93;;;;;;;16.70;48.73;98384.88;6731201;29;20224;-87
2023/11/14 09:55:01;;;;;;;4.03;1.80;;;;;;;16.23;48.58;98374.75;6730411;29;20240;-88
2023/11/14 09:58:23;;;;;;;2.50;1.60;;;;;;;16.41;48.12;98356.25;6730112;29;20303;-87
2023/11/14 10:01:46;;;;;;;3.10;1.80;;;;;;;16.63;47.99;98350.78;6731019;29;20262;-87
2023/11/14 10:05:09;;;;;;;3.90;1.83;;;;;;;16.70;47.88;98367.75;6730219;29;20641;-87
2023/11/14 10:08:32;;;;;;;4.10;1.60;;;;;;;16.54;47.44;98342.25;6730885;29;20270;-87
2023/11/14 10:11:56;;;;;;;2.27;1.60;;;;;;;16.79;47.31;98364.31;6730331;29;20211;-87
2023/11/14 10:15:27;;;;;;;1.77;1.30;;;;;;;16.98;46.92;98379.22;6724025;29;20278;-87
2023/11/14 10:18:51;;;;;;;2.07;1.90;;;;;;;17.00;47.15;98359.91;6733542;29;20700;-88
2023/11/14 10:22:12;;;;;;;4.87;1.87;;;;;;;16.63;46.52;98346.16;6705188;29;20246;-87
2023/11/14 10:25:36;;;;;;;4.07;2.10;;;;;;;17.00;45.65;98347.13;6705612;29;20309;-86
2023/11/14 10:29:00;;;;;;;3.53;1.63;;;;;;;16.72;45.63;98275.75;6715427;29;20285;-87
2023/11/14 10:32:23;;;;;;;2.83;1.83;;;;;;;16.48;46.78;98332.38;6731827;29;20230;-85
2023/11/14 10:35:46;;;;;;;3.53;1.60;;;;;;;16.96;46.62;98337.00;6722786;29;20221;-85
2023/11/14 10:39:08;;;;;;;3.83;1.80;;;;;;;16.99;46.35;98339.22;6730633;29;20313;-84
2023/11/14 10:42:29;;;;;;;4.30;1.70;;;;;;;16.87;45.92;98335.81;6731103;29;20225;-86
2023/11/14 10:45:51;;;;;;;4.80;2.17;;;;;;;16.81;46.34;98255.16;6731435;29;20658;-88
2023/11/14 10:49:12;;;;;;;2.60;1.80;;;;;;;16.89;47.00;98320.88;6733915;29;20341;-88
2023/11/14 10:52:37;;;;;;;3.77;1.90;;;;;;;15.83;47.79;98249.94;6723108;29;20302;-86
2023/11/14 10:55:59;;;;;;;2.37;1.40;;;;;;;16.32;46.72;98288.88;6756654;29;20241;-86
2023/11/14 10:59:21;;;;;;;2.10;1.63;;;;;;;16.68;46.43;98343.50;6737540;29;20381;-85
2023/11/14 11:02:42;;;;;;;4.07;1.70;;;;;;;17.02;46.35;98336.78;6712028;29;20622;-87
2023/11/14 11:06:05;;;;;;;3.30;1.70;;;;;;;17.24;46.55;98323.09;6710513;29;20210;-88
2023/11/14 11:09:31;;;;;;;2.00;1.60;;;;;;;17.39;46.85;98318.63;6709910;29;20241;-86
2023/11/14 11:12:53;;;;;;;2.43;1.80;;;;;;;17.47;45.48;98318.19;6712440;29;20208;-88
2023/11/14 11:16:15;;;;;;;2.80;1.40;;;;;;;17.08;46.33;98302.25;6724475;29;20308;-89
2023/11/14 11:19:36;;;;;;;3.40;2.40;;;;;;;17.37;46.84;98323.50;6727082;29;20327;-88
2023/11/14 11:23:03;;;;;;;4.00;2.33;;;;;;;17.41;45.58;98300.13;6709417;29;20220;-87
2023/11/14 11:26:30;;;;;;;3.27;2.13;;;;;;;16.87;45.76;98203.19;6709030;29;20207;-88
2023/11/14 11:30:04;;;;;;;2.93;1.80;;;;;;;17.47;45.66;98262.81;6708931;29;20247;-87
2023/11/14 11:33:33;;;;;;;4.23;1.87;;;;;;;16.80;47.34;98248.88;6719423;29;20241;-87
2023/11/14 11:36:54;;;;;;;3.53;2.00;;;;;;;16.63;48.12;98237.28;6717028;29;20227;-87
2023/11/14 11:40:17;;;;;;;2.73;1.60;;;;;;;17.10;47.14;98211.03;6708498;29;20242;-87
2023/11/14 11:43:42;;;;;;;4.43;1.90;;;;;;;16.98;47.52;98155.09;6709220;29;20212;-87
2023/11/14 11:47:03;;;;;;;2.53;1.83;;;;;;;17.25;46.95;98162.09;6710018;29;20220;-86
2023/11/14 11:50:26;;;;;;;1.70;1.60;;;;;;;16.51;47.48;98114.16;6733946;29;20238;-86
2023/11/14 11:53:49;;;;;;;5.37;1.77;;;;;;;16.94;47.46;98160.25;6733938;29;20303;-85
2023/11/14 11:57:11;;;;;;;3.97;1.67;;;;;;;17.14;47.47;98186.78;6712158;29;20211;-85
2023/11/14 12:00:35;;;;;;;2.53;1.50;;;;;;;17.45;46.77;98172.34;6727959;29;20605;-82
2023/11/14 12:03:57;;;;;;;6.73;2.07;;;;;;;17.47;46.28;98190.06;6736659;29;20250;-85
2023/11/14 12:07:19;;;;;;;4.07;2.20;;;;;;;17.42;46.13;98184.59;6733655;29;20215;-83
2023/11/14 12:10:43;;;;;;;4.20;2.00;;;;;;;17.71;46.20;98185.00;6726812;29;20241;-87
2023/11/14 12:14:05;;;;;;;4.37;2.40;;;;;;;17.82;45.91;98165.69;6729612;29;20309;-87
2023/11/14 12:17:28;;;;;;;4.20;1.73;;;;;;;17.36;46.37;98160.25;6733205;29;20222;-87
2023/11/14 12:20:49;;;;;;;3.90;1.70;;;;;;;16.92;47.47;98167.84;6733205;29;20262;-87
2023/11/14 12:24:12;;;;;;;4.27;2.00;;;;;;;16.72;48.40;98156.81;6732399;29;20230;-87
2023/11/14 12:27:33;;;;;;;3.33;1.70;;;;;;;17.61;46.43;98117.63;6733620;29;20234;-86
2023/11/14 12:30:59;;;;;;;4.80;2.27;;;;;;;17.89;45.97;98100.00;6726074;29;20239;-86
2023/11/14 12:34:26;;;;;;;1.87;1.57;;;;;;;17.64;45.87;98121.72;6726417;29;20329;-86
2023/11/14 12:37:48;;;;;;;5.43;2.30;;;;;;;17.78;45.90;98110.06;6732048;29;20247;-86
2023/11/14 12:41:21;;;;;;;5.83;2.00;;;;;;;17.29;46.35;98138.66;6731906;29;20233;-86
2023/11/14 12:44:43;;;;;;;4.17;2.10;;;;;;;17.65;46.24;98137.81;6731520;29;20215;-85
2023/11/14 12:48:05;;;;;;;3.83;2.00;;;;;;;17.90;45.43;98124.28;6731750;29;20698;-85
2023/11/14 12:51:28;;;;;;;3.67;2.20;;;;;;;17.97;45.82;98118.56;6731970;29;20293;-86
2023/11/14 12:54:50;;;;;;;5.10;1.77;;;;;;;17.97;45.55;98119.38;6731091;29;20273;-85
2023/11/14 12:58:11;;;;;;;5.40;1.90;;;;;;;16.90;46.77;98068.44;6729761;29;20740;-86
2023/11/14 13:01:33;;;;;;;4.30;2.10;;;;;;;17.31;47.24;98147.44;6730833;29;20317;-86
2023/11/14 13:04:55;;;;;;;6.70;2.10;;;;;;;17.28;46.91;98131.59;6731197;29;20278;-85
2023/11/14 13:08:18;;;;;;;5.20;2.80;;;;;;;17.05;47.46;98076.72;6731663;29;20219;-86
2023/11/14 13:11:40;;;;;;;2.83;2.07;;;;;;;17.60;46.65;98096.06;6731566;29;20265;-85
2023/11/14 13:15:03;;;;;;;5.80;2.50;;;;;;;17.67;46.23;98081.13;6733117;29;20242;-85
2023/11/14 13:18:24;;;;;;;3.27;1.77;;;;;;;17.49;46.75;98064.41;6724267;29;20685;-84
2023/11/14 13:21:46;;;;;;;3.10;1.80;;;;;;;17.54;46.25;98069.88;6724931;29;20218;-85
2023/11/14 13:25:15;;;;;;;1.93;1.53;;;;;;;17.41;46.38;98070.38;6730091;29;20706;-86
2023/11/14 13:28:36;;;;;;;3.33;2.03;;;;;;;17.05;46.94;98072.06;6737876;29;20252;-86
2023/11/14 13:31:58;;;;;;;3.93;2.10;;;;;;;17.17;47.36;98107.28;6738301;29;20313;-86
2023/11/14 13:35:19;;;;;;;2.77;1.80;;;;;;;17.64;45.78;98097.19;6730902;29;20269;-86
2023/11/14 13:38:41;;;;;;;3.93;2.57;;;;;;;17.22;46.84;98077.34;6716153;29;20310;-84
2023/11/14 13:42:04;;;;;;;4.33;2.23;;;;;;;17.07;47.20;98077.25;6730101;29;20218;-84
2023/11/14 13:45:27;;;;;;;4.80;2.20;;;;;;;16.93;47.56;98084.25;6731959;29;20210;-86
2023/11/14 13:48:48;;;;;;;3.90;1.80;;;;;;;17.32;46.68;98082.84;6730622;29;20243;-85
2023/11/14 13:52:10;;;;;;;4.97;2.67;;;;;;;17.05;47.48;98079.44;6731465;29;20265;-85
2023/11/14 13:55:31;;;;;;;3.60;1.83;;;;;;;17.01;47.37;98081.03;6731795;29;20230;-86
2023/11/14 13:58:54;;;;;;;5.43;2.07;;;;;;;17.12;47.28;98053.59;6724431;29;20352;-85
2023/11/14 14:02:17;;;;;;;4.80;1.80;;;;;;;17.27;47.42;98070.00;6729662;29;20214;-85
2023/11/14 14:05:38;;;;;;;3.13;1.87;;;;;;;17.28;47.32;98079.03;6729121;29;20272;-85
2023/11/14 14:09:00;;;;;;;6.57;2.10;;;;;;;17.23;47.43;98087.97;6728954;29;20290;-85
2023/11/14 14:12:21;;;;;;;4.23;2.53;;;;;;;17.33;47.30;98084.50;6729745;29;20218;-86
2023/11/14 14:15:45;;;;;;;4.87;2.20;;;;;;;16.99;47.91;98078.56;6729258;29;20368;-85
2023/11/14 14:19:07;;;;;;;4.90;2.00;;;;;;;16.69;48.62;98094.69;6729120;29;20254;-86
2023/11/14 14:22:30;;;;;;;8.03;2.20;;;;;;;17.06;47.86;98094.69;6729619;29;20350;-85
2023/11/14 14:25:51;;;;;;;4.67;2.40;;;;;;;16.42;49.44;98076.81;6729118;29;20814;-85
2023/11/14 14:29:13;;;;;;;4.57;2.30;;;;;;;16.87;48.12;98053.44;6726928;29;20373;-87
2023/11/14 14:32:37;;;;;;;4.03;1.97;;;;;;;16.83;48.29;98027.84;6745195;29;20300;-85
2023/11/14 14:35:58;;;;;;;3.13;2.00;;;;;;;16.92;48.03;98030.91;6737384;29;20211;-86
2023/11/14 14:39:20;;;;;;;6.47;2.80;;;;;;;17.16;47.58;98013.03;6737670;29;20695;-85
2023/11/14 14:42:42;;;;;;;6.07;1.90;;;;;;;17.26;47.50;98026.69;6729033;29;20210;-81
2023/11/14 14:46:05;;;;;;;4.73;1.80;;;;;;;17.28;47.40;98010.91;6728463;29;20276;-84
2023/11/14 14:49:27;;;;;;;3.43;1.77;;;;;;;16.90;47.96;98025.72;6729046;29;20233;-82
2023/11/14 14:52:49;;;;;;;3.77;2.00;;;;;;;16.70;48.60;98027.50;6730814;29;20252;-83
2023/11/14 14:56:10;;;;;;;3.97;2.47;;;;;;;15.98;48.94;97971.97;6731307;29;20312;-82
2023/11/14 14:59:32;;;;;;;5.47;3.60;;;;;;;16.43;48.54;98016.69;6724713;29;20383;-82
2023/11/14 15:02:53;;;;;;;6.07;3.43;;;;;;;16.42;49.37;98031.38;6733022;29;20580;-84
2023/11/14 15:06:16;;;;;;;5.33;2.33;;;;;;;16.13;49.27;98002.00;6732656;29;20741;-82
2023/11/14 15:09:38;;;;;;;3.87;2.03;;;;;;;16.39;49.15;98031.88;6733816;29;20242;-82
2023/11/14 15:13:00;;;;;;;2.57;1.90;;;;;;;16.25;49.36;98016.25;6732096;29;20214;-83
2023/11/14 15:16:21;;;;;;;3.60;2.07;;;;;;;16.22;49.90;98043.97;6730185;29;20254;-83
2023/11/14 15:19:44;;;;;;;6.37;2.80;;;;;;;15.55;51.40;98051.72;6741163;29;20231;-80
2023/11/14 15:23:07;;;;;;;2.50;1.83;;;;;;;15.66;51.27;98028.19;6730197;29;20243;-84
2023/11/14 15:26:29;;;;;;;4.87;2.07;;;;;;;15.71;51.20;98034.53;6735047;29;20296;-83
2023/11/14 15:29:50;;;;;;;2.23;1.57;;;;;;;16.06;50.68;98018.56;6731576;29;20268;-83
2023/11/14 15:33:12;;;;;;;3.53;1.60;;;;;;;16.14;50.42;98019.94;6730439;29;20361;-83
2023/11/14 15:36:33;;;;;;;3.00;1.87;;;;;;;15.82;51.30;98005.53;6730326;29;20221;-83
2023/11/14 15:39:56;;;;;;;3.87;2.13;;;;;;;16.00;51.23;97991.56;6730579;29;20605;-82
2023/11/14 15:43:18;;;;;;;4.97;2.27;;;;;;;15.88;51.63;97983.59;6730898;29;20213;-84
2023/11/14 15:46:39;;;;;;;4.10;2.27;;;;;;;15.82;51.78;97973.72;6739868;29;20220;-82
2023/11/14 15:50:02;;;;;;;3.20;1.80;;;;;;;15.62;51.37;97902.09;6740019;29;20588;-81